createdAt,value
2018-01-24T00:00:35.064Z,0.00
2018-01-24T00:02:28.001Z,0.00
2018-01-24T00:03:28.020Z,0.00
2018-01-24T00:05:20.976Z,0.00
2018-01-24T00:06:20.975Z,0.00
2018-01-24T00:08:14.425Z,0.00
2018-01-24T00:09:14.440Z,0.00
2018-01-24T00:11:07.395Z,0.00
2018-01-24T00:12:07.395Z,0.00
2018-01-24T00:14:00.330Z,0.00
2018-01-24T00:15:00.353Z,0.00
2018-01-24T00:16:53.271Z,0.00
2018-01-24T00:17:53.275Z,0.00
2018-01-24T00:19:46.768Z,0.00
2018-01-24T00:20:46.770Z,0.00
2018-01-24T00:22:39.705Z,0.00
2018-01-24T00:23:39.724Z,0.00
2018-01-24T00:25:32.676Z,0.00
2018-01-24T00:26:32.677Z,0.00
2018-01-24T00:28:25.613Z,0.00
2018-01-24T00:29:25.633Z,0.00
2018-01-24T00:31:18.586Z,0.00
2018-01-24T00:32:18.641Z,0.00
2018-01-24T00:34:11.522Z,0.00
2018-01-24T00:35:11.545Z,0.00
2018-01-24T00:37:04.495Z,0.00
2018-01-24T00:38:04.493Z,0.00
2018-01-24T00:39:57.463Z,0.00
2018-01-24T00:40:57.448Z,0.00
2018-01-24T00:42:50.384Z,0.00
2018-01-24T00:43:50.404Z,0.00
2018-01-24T00:45:44.891Z,0.00
2018-01-24T00:46:44.911Z,0.00
2018-01-24T00:48:37.828Z,0.00
2018-01-24T00:49:37.846Z,0.00
2018-01-24T00:51:31.313Z,0.00
2018-01-24T00:52:31.318Z,0.00
2018-01-24T00:54:24.251Z,0.00
2018-01-24T00:55:24.268Z,0.00
2018-01-24T00:57:17.737Z,0.00
2018-01-24T00:58:17.734Z,0.00
2018-01-24T01:00:10.700Z,0.00
2018-01-24T01:01:10.687Z,0.00
2018-01-24T01:03:03.623Z,0.00
2018-01-24T01:04:03.641Z,0.00
2018-01-24T01:05:56.594Z,0.00
2018-01-24T01:06:56.637Z,0.00
2018-01-24T01:08:49.532Z,0.00
2018-01-24T01:09:49.566Z,0.00
2018-01-24T01:11:42.505Z,0.00
2018-01-24T01:12:42.509Z,0.00
2018-01-24T01:14:35.442Z,0.00
2018-01-24T01:15:35.458Z,0.00
2018-01-24T01:17:28.410Z,0.00
2018-01-24T01:18:28.412Z,0.00
2018-01-24T01:20:21.368Z,0.00
2018-01-24T01:21:21.372Z,0.00
2018-01-24T01:23:14.306Z,0.00
2018-01-24T01:24:14.325Z,0.00
2018-01-24T01:26:07.274Z,0.00
2018-01-24T01:27:07.281Z,0.00
2018-01-24T01:29:00.213Z,0.00
2018-01-24T01:30:00.233Z,0.00
2018-01-24T01:31:53.186Z,0.00
2018-01-24T01:32:53.189Z,0.00
2018-01-24T01:34:47.142Z,0.00
2018-01-24T01:35:47.162Z,0.00
2018-01-24T01:37:40.114Z,0.00
2018-01-24T01:38:40.116Z,0.00
2018-01-24T01:40:33.069Z,0.00
2018-01-24T01:41:33.069Z,0.00
2018-01-24T01:43:26.516Z,0.00
2018-01-24T01:44:26.561Z,0.00
2018-01-24T01:46:20.011Z,0.00
2018-01-24T01:47:20.006Z,0.00
2018-01-24T01:49:12.945Z,0.00
2018-01-24T01:50:12.959Z,0.00
2018-01-24T01:52:05.910Z,0.00
2018-01-24T01:53:05.914Z,0.00
2018-01-24T01:54:58.849Z,0.00
2018-01-24T01:55:58.885Z,0.00
2018-01-24T01:57:51.817Z,0.00
2018-01-24T01:58:51.823Z,0.00
2018-01-24T02:00:46.308Z,0.00
2018-01-24T02:01:46.310Z,0.00
2018-01-24T02:03:39.246Z,0.00
2018-01-24T02:04:39.267Z,0.00
2018-01-24T02:06:32.216Z,0.00
2018-01-24T02:07:32.217Z,0.00
2018-01-24T02:09:25.664Z,0.00
2018-01-24T02:10:25.683Z,0.00
2018-01-24T02:12:18.639Z,0.00
2018-01-24T02:13:18.641Z,0.00
2018-01-24T02:15:11.575Z,0.00
2018-01-24T02:16:11.596Z,0.00
2018-01-24T02:18:04.546Z,0.00
2018-01-24T02:19:04.550Z,0.00
2018-01-24T02:20:59.042Z,0.00
2018-01-24T02:21:59.036Z,0.00
2018-01-24T02:23:51.987Z,0.00
2018-01-24T02:24:51.994Z,0.00
2018-01-24T02:26:44.947Z,0.00
2018-01-24T02:27:44.948Z,0.00
2018-01-24T02:29:37.881Z,0.00
2018-01-24T02:30:37.899Z,0.00
2018-01-24T02:32:30.852Z,0.00
2018-01-24T02:33:30.876Z,0.00
2018-01-24T02:35:23.792Z,0.00
2018-01-24T02:36:23.807Z,0.00
2018-01-24T02:38:16.765Z,0.00
2018-01-24T02:39:16.766Z,0.00
2018-01-24T02:41:09.714Z,0.00
2018-01-24T02:42:09.722Z,0.00
2018-01-24T02:44:02.653Z,0.00
2018-01-24T02:45:02.670Z,0.00
2018-01-24T02:46:57.157Z,0.00
2018-01-24T02:47:57.163Z,0.00
2018-01-24T02:49:50.607Z,0.00
2018-01-24T02:50:50.632Z,0.00
2018-01-24T02:52:44.090Z,0.00
2018-01-24T02:53:44.095Z,0.00
2018-01-24T02:55:37.028Z,0.00
2018-01-24T02:56:37.106Z,0.00
2018-01-24T02:58:30.006Z,0.00
2018-01-24T02:59:30.009Z,0.00
2018-01-24T03:01:22.958Z,0.00
2018-01-24T03:02:22.959Z,0.00
2018-01-24T03:04:15.889Z,0.00
2018-01-24T03:05:15.911Z,0.00
2018-01-24T03:07:08.868Z,0.00
2018-01-24T03:08:08.865Z,0.00
2018-01-24T03:10:03.547Z,0.00
2018-01-24T03:11:03.561Z,0.00
2018-01-24T03:12:56.510Z,0.00
2018-01-24T03:13:56.514Z,0.00
2018-01-24T03:15:49.960Z,0.00
2018-01-24T03:16:49.980Z,0.00
2018-01-24T03:18:42.929Z,0.00
2018-01-24T03:19:42.937Z,0.00
2018-01-24T03:21:36.415Z,0.00
2018-01-24T03:22:36.401Z,0.00
2018-01-24T03:24:29.337Z,0.00
2018-01-24T03:25:29.356Z,0.00
2018-01-24T03:27:23.841Z,0.00
2018-01-24T03:28:23.847Z,0.00
2018-01-24T03:30:16.783Z,0.00
2018-01-24T03:31:16.804Z,0.00
2018-01-24T03:33:09.750Z,0.00
2018-01-24T03:34:09.753Z,0.00
2018-01-24T03:36:02.690Z,0.00
2018-01-24T03:37:02.708Z,0.00
2018-01-24T03:38:55.660Z,0.00
2018-01-24T03:39:55.664Z,0.00
2018-01-24T03:41:48.618Z,0.00
2018-01-24T03:42:48.623Z,0.00
2018-01-24T03:44:41.548Z,0.00
2018-01-24T03:45:41.571Z,0.00
2018-01-24T03:47:35.034Z,0.00
2018-01-24T03:48:35.037Z,0.00
2018-01-24T03:50:29.505Z,0.00
2018-01-24T03:51:29.527Z,0.00
2018-01-24T03:53:22.478Z,0.00
2018-01-24T03:54:22.481Z,0.00
2018-01-24T03:56:15.416Z,0.00
2018-01-24T03:57:15.434Z,0.00
2018-01-24T03:59:08.401Z,0.00
2018-01-24T04:00:08.389Z,0.00
2018-01-24T04:02:01.342Z,0.00
2018-01-24T04:03:01.345Z,0.00
2018-01-24T04:04:54.276Z,0.00
2018-01-24T04:05:54.298Z,0.00
2018-01-24T04:07:47.249Z,0.00
2018-01-24T04:08:47.252Z,0.00
2018-01-24T04:10:40.195Z,0.00
2018-01-24T04:11:40.213Z,0.00
2018-01-24T04:13:33.158Z,0.00
2018-01-24T04:14:33.160Z,0.00
2018-01-24T04:16:26.605Z,0.00
2018-01-24T04:17:26.630Z,0.00
2018-01-24T04:19:19.578Z,0.00
2018-01-24T04:20:19.582Z,0.00
2018-01-24T04:22:13.065Z,0.00
2018-01-24T04:23:13.056Z,0.00
2018-01-24T04:25:05.985Z,0.00
2018-01-24T04:26:06.001Z,0.00
2018-01-24T04:27:58.954Z,0.00
2018-01-24T04:28:58.954Z,0.00
2018-01-24T04:30:51.895Z,0.00
2018-01-24T04:31:51.931Z,0.00
2018-01-24T04:33:44.861Z,0.00
2018-01-24T04:34:44.864Z,0.00
2018-01-24T04:36:37.800Z,0.00
2018-01-24T04:37:37.819Z,0.00
2018-01-24T04:39:30.769Z,0.00
2018-01-24T04:40:30.771Z,0.00
2018-01-24T04:42:24.236Z,0.00
2018-01-24T04:43:24.239Z,0.00
2018-01-24T04:45:17.184Z,0.00
2018-01-24T04:46:17.200Z,0.00
2018-01-24T04:48:10.143Z,0.00
2018-01-24T04:49:10.147Z,0.00
2018-01-24T04:51:03.182Z,0.00
2018-01-24T04:52:03.201Z,0.00
2018-01-24T04:53:56.155Z,0.00
2018-01-24T04:54:56.157Z,0.00
2018-01-24T04:56:49.094Z,0.00
2018-01-24T04:57:49.112Z,0.00
2018-01-24T04:59:42.063Z,0.00
2018-01-24T05:00:42.065Z,0.00
2018-01-24T05:02:35.018Z,0.00
2018-01-24T05:03:35.022Z,0.00
2018-01-24T05:05:27.952Z,0.00
2018-01-24T05:06:27.974Z,0.00
2018-01-24T05:08:20.924Z,0.00
2018-01-24T05:09:20.927Z,0.00
2018-01-24T05:11:13.865Z,0.00
2018-01-24T05:12:13.882Z,0.00
2018-01-24T05:14:07.344Z,0.00
2018-01-24T05:15:07.348Z,0.00
2018-01-24T05:17:00.285Z,0.00
2018-01-24T05:18:00.301Z,0.00
2018-01-24T05:19:53.254Z,0.00
2018-01-24T05:20:53.256Z,0.00
2018-01-24T05:22:46.232Z,0.00
2018-01-24T05:23:46.211Z,0.00
2018-01-24T05:25:39.147Z,0.00
2018-01-24T05:26:39.167Z,0.00
2018-01-24T05:28:32.116Z,0.00
2018-01-24T05:29:32.118Z,0.00
2018-01-24T05:31:25.058Z,0.00
2018-01-24T05:32:25.074Z,0.00
2018-01-24T05:34:18.046Z,0.00
2018-01-24T05:35:18.028Z,0.00
2018-01-24T05:37:10.964Z,0.00
2018-01-24T05:38:10.981Z,0.00
2018-01-24T05:40:03.933Z,0.00
2018-01-24T05:41:03.940Z,0.00
2018-01-24T05:42:56.861Z,0.00
2018-01-24T05:43:56.865Z,0.00
2018-01-24T05:45:49.841Z,0.00
2018-01-24T05:46:49.862Z,0.00
2018-01-24T05:48:42.798Z,0.00
2018-01-24T05:49:42.799Z,0.00
2018-01-24T05:51:35.730Z,0.00
2018-01-24T05:52:35.752Z,0.00
2018-01-24T05:54:28.705Z,0.00
2018-01-24T05:55:28.706Z,0.00
2018-01-24T05:57:21.643Z,0.00
2018-01-24T05:58:21.660Z,0.00
2018-01-24T06:00:14.611Z,0.00
2018-01-24T06:01:14.613Z,0.00
2018-01-24T06:03:07.565Z,0.00
2018-01-24T06:04:07.571Z,0.00
2018-01-24T06:06:00.507Z,0.00
2018-01-24T06:07:00.524Z,0.00
2018-01-24T06:08:53.989Z,0.00
2018-01-24T06:09:53.991Z,0.00
2018-01-24T06:11:46.929Z,0.00
2018-01-24T06:12:46.946Z,0.00
2018-01-24T06:14:39.895Z,0.00
2018-01-24T06:15:39.899Z,0.00
2018-01-24T06:17:32.836Z,0.00
2018-01-24T06:18:32.854Z,0.00
2018-01-24T06:20:25.804Z,0.00
2018-01-24T06:21:25.808Z,0.00
2018-01-24T06:23:18.768Z,0.00
2018-01-24T06:24:18.762Z,0.00
2018-01-24T06:26:11.700Z,0.00
2018-01-24T06:27:11.724Z,0.00
2018-01-24T06:29:04.646Z,0.00
2018-01-24T06:30:04.654Z,0.00
2018-01-24T06:31:57.563Z,0.00
2018-01-24T06:32:57.595Z,0.00
2018-01-24T06:34:51.014Z,0.00
2018-01-24T06:35:51.021Z,0.00
2018-01-24T06:37:43.923Z,0.00
2018-01-24T06:38:43.944Z,0.00
2018-01-24T06:40:36.882Z,0.00
2018-01-24T06:41:36.874Z,0.00
2018-01-24T06:43:29.802Z,0.00
2018-01-24T06:44:29.804Z,0.00
2018-01-24T06:46:22.713Z,0.00
2018-01-24T06:47:22.736Z,0.00
2018-01-24T06:49:15.657Z,0.00
2018-01-24T06:50:15.659Z,0.00
2018-01-24T06:52:08.570Z,4.00
2018-01-24T06:53:08.589Z,0.00
2018-01-24T06:55:01.520Z,4.00
2018-01-24T06:56:01.529Z,4.00
2018-01-24T06:57:55.923Z,4.00
2018-01-24T06:58:55.941Z,8.00
2018-01-24T07:00:48.868Z,12.00
2018-01-24T07:01:48.871Z,8.00
2018-01-24T07:03:41.809Z,16.00
2018-01-24T07:04:41.815Z,20.00
2018-01-24T07:06:34.718Z,20.00
2018-01-24T07:07:34.737Z,28.00
2018-01-24T07:09:27.666Z,28.00
2018-01-24T07:10:27.665Z,40.00
2018-01-24T07:12:20.572Z,44.00
2018-01-24T07:13:20.596Z,52.00
2018-01-24T07:15:13.521Z,52.00
2018-01-24T07:16:13.521Z,56.00
2018-01-24T07:18:06.921Z,76.00
2018-01-24T07:19:06.942Z,88.00
2018-01-24T07:20:59.890Z,92.00
2018-01-24T07:21:59.898Z,100.00
2018-01-24T07:23:52.820Z,92.00
2018-01-24T07:24:52.824Z,100.00
2018-01-24T07:26:46.729Z,120.00
2018-01-24T07:27:46.748Z,120.00
2018-01-24T07:29:39.673Z,128.00
2018-01-24T07:30:39.676Z,132.00
2018-01-24T07:32:32.587Z,140.00
2018-01-24T07:33:32.608Z,148.00
2018-01-24T07:35:25.535Z,156.00
2018-01-24T07:36:25.536Z,180.00
2018-01-24T07:38:18.462Z,208.00
2018-01-24T07:39:18.473Z,224.00
2018-01-24T07:41:11.392Z,248.00
2018-01-24T07:42:11.395Z,284.00
2018-01-24T07:44:04.324Z,264.00
2018-01-24T07:45:04.324Z,308.00
2018-01-24T07:46:57.233Z,424.00
2018-01-24T07:47:57.253Z,424.00
2018-01-24T07:49:50.182Z,496.00
2018-01-24T07:50:50.184Z,488.00
2018-01-24T07:52:43.096Z,436.00
2018-01-24T07:53:43.116Z,576.00
2018-01-24T07:55:36.043Z,568.00
2018-01-24T07:56:36.048Z,580.00
2018-01-24T07:58:28.952Z,516.00
2018-01-24T07:59:29.031Z,524.00
2018-01-24T08:01:22.403Z,492.00
2018-01-24T08:02:22.407Z,556.00
2018-01-24T08:04:15.352Z,608.00
2018-01-24T08:05:15.335Z,612.00
2018-01-24T08:07:09.742Z,548.00
2018-01-24T08:08:09.763Z,504.00
2018-01-24T08:10:02.688Z,588.00
2018-01-24T08:11:02.705Z,644.00
2018-01-24T08:12:55.598Z,636.00
2018-01-24T08:13:55.639Z,656.00
2018-01-24T08:15:48.546Z,736.00
2018-01-24T08:16:48.546Z,752.00
2018-01-24T08:18:41.469Z,948.00
2018-01-24T08:19:41.488Z,828.00
2018-01-24T08:21:34.417Z,856.00
2018-01-24T08:22:34.425Z,784.00
2018-01-24T08:24:27.352Z,800.00
2018-01-24T08:25:27.360Z,908.00
2018-01-24T08:27:20.761Z,824.00
2018-01-24T08:28:20.781Z,972.00
2018-01-24T08:30:13.712Z,1064.00
2018-01-24T08:31:13.718Z,956.00
2018-01-24T08:33:08.124Z,1268.00
2018-01-24T08:34:08.147Z,1280.00
2018-01-24T08:36:01.086Z,1280.00
2018-01-24T08:37:01.088Z,1256.00
2018-01-24T08:38:54.002Z,1140.00
2018-01-24T08:39:54.022Z,1436.00
2018-01-24T08:41:46.948Z,1432.00
2018-01-24T08:42:46.951Z,1480.00
2018-01-24T08:44:39.878Z,1068.00
2018-01-24T08:45:39.882Z,1092.00
2018-01-24T08:47:33.287Z,1116.00
2018-01-24T08:48:33.305Z,908.00
2018-01-24T08:50:27.726Z,1456.00
2018-01-24T08:51:27.728Z,1756.00
2018-01-24T08:53:20.637Z,2068.00
2018-01-24T08:54:20.658Z,1328.00
2018-01-24T08:56:13.585Z,1492.00
2018-01-24T08:57:13.589Z,1456.00
2018-01-24T08:59:06.500Z,1604.00
2018-01-24T09:00:06.519Z,2092.00
2018-01-24T09:01:59.445Z,1684.00
2018-01-24T09:02:59.447Z,1652.00
2018-01-24T09:04:52.375Z,2116.00
2018-01-24T09:05:52.379Z,2720.00
2018-01-24T09:07:45.289Z,2004.00
2018-01-24T09:08:45.317Z,1808.00
2018-01-24T09:10:38.748Z,2468.00
2018-01-24T09:11:38.753Z,2560.00
2018-01-24T09:13:31.660Z,2768.00
2018-01-24T09:14:31.684Z,2004.00
2018-01-24T09:16:24.611Z,2512.00
2018-01-24T09:17:24.615Z,3124.00
2018-01-24T09:19:17.522Z,2996.00
2018-01-24T09:20:17.545Z,3568.00
2018-01-24T09:22:10.978Z,3880.00
2018-01-24T09:23:10.982Z,2888.00
2018-01-24T09:25:03.909Z,3988.00
2018-01-24T09:26:03.912Z,4132.00
2018-01-24T09:27:58.315Z,4892.00
2018-01-24T09:28:58.336Z,4532.00
2018-01-24T09:30:51.759Z,4400.00
2018-01-24T09:31:51.762Z,3940.00
2018-01-24T09:33:44.673Z,3192.00
2018-01-24T09:34:44.694Z,3044.00
2018-01-24T09:36:37.624Z,2916.00
2018-01-24T09:37:37.635Z,2908.00
2018-01-24T09:39:30.538Z,3036.00
2018-01-24T09:40:30.560Z,3112.00
2018-01-24T09:42:23.491Z,3360.00
2018-01-24T09:43:23.500Z,3388.00
2018-01-24T09:45:16.470Z,3036.00
2018-01-24T09:46:16.463Z,3004.00
2018-01-24T09:48:09.375Z,3076.00
2018-01-24T09:49:09.397Z,3160.00
2018-01-24T09:51:02.325Z,3292.00
2018-01-24T09:52:02.329Z,3448.00
2018-01-24T09:53:55.242Z,3372.00
2018-01-24T09:54:55.270Z,3624.00
2018-01-24T09:56:48.199Z,4856.00
2018-01-24T09:57:48.205Z,5536.00
2018-01-24T09:59:41.113Z,4804.00
2018-01-24T10:00:41.137Z,4408.00
2018-01-24T10:02:34.067Z,4728.00
2018-01-24T10:03:34.076Z,4972.00
2018-01-24T10:05:27.003Z,4196.00
2018-01-24T10:06:27.004Z,4860.00
2018-01-24T10:08:19.917Z,3428.00
2018-01-24T10:09:19.939Z,2940.00
2018-01-24T10:11:12.869Z,2396.00
2018-01-24T10:12:12.873Z,2372.00
2018-01-24T10:14:05.784Z,3060.00
2018-01-24T10:15:05.806Z,3284.00
2018-01-24T10:16:58.738Z,2200.00
2018-01-24T10:17:58.741Z,3744.00
2018-01-24T10:19:51.705Z,4988.00
2018-01-24T10:20:51.682Z,4400.00
2018-01-24T10:22:44.620Z,4256.00
2018-01-24T10:23:44.618Z,4428.00
2018-01-24T10:25:37.559Z,5628.00
2018-01-24T10:26:37.555Z,5716.00
2018-01-24T10:28:30.482Z,5944.00
2018-01-24T10:29:30.491Z,6072.00
2018-01-24T10:31:23.425Z,5668.00
2018-01-24T10:32:23.426Z,6008.00
2018-01-24T10:34:16.341Z,5816.00
2018-01-24T10:35:16.366Z,3404.00
2018-01-24T10:37:09.288Z,5424.00
2018-01-24T10:38:09.294Z,5156.00
2018-01-24T10:40:02.207Z,6392.00
2018-01-24T10:41:02.229Z,6280.00
2018-01-24T10:42:55.158Z,5220.00
2018-01-24T10:43:55.183Z,5248.00
2018-01-24T10:45:48.095Z,5636.00
2018-01-24T10:46:48.106Z,5680.00
2018-01-24T10:48:41.531Z,5636.00
2018-01-24T10:49:41.531Z,5448.00
2018-01-24T10:51:34.460Z,5152.00
2018-01-24T10:52:34.464Z,5220.00
2018-01-24T10:54:27.379Z,6292.00
2018-01-24T10:55:27.400Z,6768.00
2018-01-24T10:57:25.336Z,6348.00
2018-01-24T10:58:25.342Z,5984.00
2018-01-24T11:00:18.275Z,6552.00
2018-01-24T11:01:18.299Z,6728.00
2018-01-24T11:03:11.231Z,6128.00
2018-01-24T11:04:11.236Z,5256.00
2018-01-24T11:06:04.170Z,6136.00
2018-01-24T11:07:04.177Z,6508.00
2018-01-24T11:08:57.087Z,6660.00
2018-01-24T11:09:57.115Z,6568.00
2018-01-24T11:11:50.047Z,7004.00
2018-01-24T11:12:50.056Z,7336.00
2018-01-24T11:14:42.971Z,6880.00
2018-01-24T11:15:42.995Z,6212.00
2018-01-24T11:17:35.931Z,4664.00
2018-01-24T11:18:35.938Z,5196.00
2018-01-24T11:20:29.348Z,5136.00
2018-01-24T11:21:29.376Z,5664.00
2018-01-24T11:23:22.308Z,4812.00
2018-01-24T11:24:22.309Z,4636.00
2018-01-24T11:26:15.736Z,4212.00
2018-01-24T11:27:15.742Z,4100.00
2018-01-24T11:29:08.655Z,3832.00
2018-01-24T11:30:08.686Z,3904.00
2018-01-24T11:32:01.612Z,3940.00
2018-01-24T11:33:01.628Z,4252.00
2018-01-24T11:34:54.563Z,4460.00
2018-01-24T11:35:54.581Z,4444.00
2018-01-24T11:37:47.513Z,5576.00
2018-01-24T11:38:47.525Z,5952.00
2018-01-24T11:40:41.428Z,6124.00
2018-01-24T11:41:41.452Z,6468.00
2018-01-24T11:43:34.385Z,6428.00
2018-01-24T11:44:34.390Z,6696.00
2018-01-24T11:46:27.322Z,6724.00
2018-01-24T11:47:27.332Z,6748.00
2018-01-24T11:49:20.237Z,6900.00
2018-01-24T11:50:20.262Z,6904.00
2018-01-24T11:52:13.205Z,6932.00
2018-01-24T11:53:13.207Z,6892.00
2018-01-24T11:55:07.614Z,6844.00
2018-01-24T11:56:07.663Z,6784.00
2018-01-24T11:58:00.570Z,6616.00
2018-01-24T11:59:00.582Z,6576.00
2018-01-24T12:00:53.501Z,6588.00
2018-01-24T12:01:53.523Z,6628.00
2018-01-24T12:03:46.472Z,6652.00
2018-01-24T12:04:46.478Z,6604.00
2018-01-24T12:06:39.412Z,6404.00
2018-01-24T12:07:39.422Z,5964.00
2018-01-24T12:09:33.826Z,5544.00
2018-01-24T12:10:33.902Z,5380.00
2018-01-24T12:12:26.781Z,4848.00
2018-01-24T12:13:26.787Z,4644.00
2018-01-24T12:15:19.704Z,4408.00
2018-01-24T12:16:19.731Z,4696.00
2018-01-24T12:18:12.869Z,5848.00
2018-01-24T12:19:12.873Z,5772.00
2018-01-24T12:21:05.848Z,5156.00
2018-01-24T12:22:05.872Z,5096.00
2018-01-24T12:23:58.821Z,4224.00
2018-01-24T12:24:58.850Z,4468.00
2018-01-24T12:26:51.776Z,4636.00
2018-01-24T12:27:51.864Z,4860.00
2018-01-24T12:29:45.222Z,4424.00
2018-01-24T12:30:45.245Z,4064.00
2018-01-24T12:32:38.194Z,3900.00
2018-01-24T12:33:38.211Z,4452.00
2018-01-24T12:35:31.129Z,5592.00
2018-01-24T12:36:31.168Z,5780.00
2018-01-24T12:38:24.149Z,5340.00
2018-01-24T12:39:24.108Z,5600.00
2018-01-24T12:41:17.039Z,5832.00
2018-01-24T12:42:17.064Z,6088.00
2018-01-24T12:44:10.011Z,6032.00
2018-01-24T12:45:10.017Z,6024.00
2018-01-24T12:47:03.478Z,5492.00
2018-01-24T12:48:03.495Z,5368.00
2018-01-24T12:49:56.417Z,4776.00
2018-01-24T12:50:56.439Z,4308.00
2018-01-24T12:52:49.385Z,4812.00
2018-01-24T12:53:49.392Z,4680.00
2018-01-24T12:55:42.311Z,4996.00
2018-01-24T12:56:42.337Z,5236.00
2018-01-24T12:58:35.293Z,4132.00
2018-01-24T12:59:35.301Z,3460.00
2018-01-24T13:01:28.322Z,2840.00
2018-01-24T13:02:28.270Z,2764.00
2018-01-24T13:04:21.203Z,3508.00
2018-01-24T13:05:21.208Z,3320.00
2018-01-24T13:07:14.160Z,2836.00
2018-01-24T13:08:14.183Z,2956.00
2018-01-24T13:10:07.141Z,2748.00
2018-01-24T13:11:07.117Z,2764.00
2018-01-24T13:13:00.067Z,2636.00
2018-01-24T13:14:00.075Z,2356.00
2018-01-24T13:15:52.999Z,2416.00
2018-01-24T13:16:53.026Z,2116.00
2018-01-24T13:18:45.992Z,2188.00
2018-01-24T13:19:45.977Z,2304.00
2018-01-24T13:21:38.972Z,2552.00
2018-01-24T13:22:38.934Z,2724.00
2018-01-24T13:24:31.882Z,2664.00
2018-01-24T13:25:31.887Z,2600.00
2018-01-24T13:27:24.836Z,3424.00
2018-01-24T13:28:24.853Z,3624.00
2018-01-24T13:30:17.772Z,3260.00
2018-01-24T13:31:17.803Z,3276.00
2018-01-24T13:33:10.765Z,2336.00
2018-01-24T13:34:10.772Z,2196.00
2018-01-24T13:36:03.785Z,2048.00
2018-01-24T13:37:03.815Z,1868.00
2018-01-24T13:38:56.756Z,2116.00
2018-01-24T13:39:56.761Z,2364.00
2018-01-24T13:41:50.224Z,2360.00
2018-01-24T13:42:50.228Z,2240.00
2018-01-24T13:44:43.183Z,2516.00
2018-01-24T13:45:43.183Z,1964.00
2018-01-24T13:47:36.132Z,2964.00
2018-01-24T13:48:36.134Z,3008.00
2018-01-24T13:50:30.599Z,2676.00
2018-01-24T13:51:30.625Z,2356.00
2018-01-24T13:53:24.621Z,1800.00
2018-01-24T13:54:24.625Z,1756.00
2018-01-24T13:56:18.044Z,2284.00
2018-01-24T13:57:18.069Z,2100.00
2018-01-24T13:59:11.016Z,1448.00
2018-01-24T14:00:11.026Z,1952.00
2018-01-24T14:02:03.954Z,1852.00
2018-01-24T14:03:03.981Z,1600.00
2018-01-24T14:04:56.949Z,1356.00
2018-01-24T14:05:56.978Z,1444.00
2018-01-24T14:07:49.982Z,1644.00
2018-01-24T14:08:50.011Z,1312.00
2018-01-24T14:10:42.917Z,1212.00
2018-01-24T14:11:42.947Z,1248.00
2018-01-24T14:13:35.894Z,1032.00
2018-01-24T14:14:35.899Z,912.00
2018-01-24T14:16:28.826Z,828.00
2018-01-24T14:17:28.851Z,776.00
2018-01-24T14:19:21.837Z,864.00
2018-01-24T14:20:21.835Z,856.00
2018-01-24T14:22:14.786Z,940.00
2018-01-24T14:23:14.761Z,892.00
2018-01-24T14:25:07.713Z,888.00
2018-01-24T14:26:07.712Z,972.00
2018-01-24T14:28:01.264Z,1004.00
2018-01-24T14:29:01.234Z,984.00
2018-01-24T14:30:54.111Z,1112.00
2018-01-24T14:31:54.133Z,1152.00
2018-01-24T14:33:47.105Z,1296.00
2018-01-24T14:34:47.092Z,1336.00
2018-01-24T14:36:40.019Z,1196.00
2018-01-24T14:37:40.045Z,1196.00
2018-01-24T14:39:33.502Z,1024.00
2018-01-24T14:40:33.506Z,1044.00
2018-01-24T14:42:26.951Z,996.00
2018-01-24T14:43:26.974Z,880.00
2018-01-24T14:45:19.922Z,880.00
2018-01-24T14:46:19.928Z,856.00
2018-01-24T14:48:12.877Z,916.00
2018-01-24T14:49:12.881Z,792.00
2018-01-24T14:51:05.917Z,776.00
2018-01-24T14:52:05.937Z,760.00
2018-01-24T14:53:58.953Z,840.00
2018-01-24T14:54:58.908Z,848.00
2018-01-24T14:56:51.835Z,648.00
2018-01-24T14:57:51.848Z,688.00
2018-01-24T14:59:44.798Z,564.00
2018-01-24T15:00:44.801Z,656.00
2018-01-24T15:02:38.244Z,584.00
2018-01-24T15:03:38.268Z,544.00
2018-01-24T15:05:31.223Z,440.00
2018-01-24T15:06:31.221Z,416.00
2018-01-24T15:08:24.682Z,500.00
2018-01-24T15:09:24.688Z,428.00
2018-01-24T15:11:17.629Z,400.00
2018-01-24T15:12:17.676Z,348.00
2018-01-24T15:14:10.590Z,380.00
2018-01-24T15:15:10.596Z,356.00
2018-01-24T15:17:03.545Z,332.00
2018-01-24T15:18:03.549Z,300.00
2018-01-24T15:19:57.054Z,248.00
2018-01-24T15:20:57.031Z,244.00
2018-01-24T15:22:49.947Z,272.00
2018-01-24T15:23:50.055Z,264.00
2018-01-24T15:25:43.433Z,220.00
2018-01-24T15:26:43.436Z,212.00
2018-01-24T15:28:36.406Z,164.00
2018-01-24T15:29:36.394Z,156.00
2018-01-24T15:31:29.322Z,148.00
2018-01-24T15:32:30.076Z,120.00
2018-01-24T15:34:22.419Z,124.00
2018-01-24T15:35:22.499Z,108.00
2018-01-24T15:37:15.453Z,96.00
2018-01-24T15:38:15.459Z,84.00
2018-01-24T15:40:08.407Z,80.00
2018-01-24T15:41:08.413Z,72.00
2018-01-24T15:43:01.429Z,68.00
2018-01-24T15:44:01.422Z,60.00
2018-01-24T15:45:55.260Z,48.00
2018-01-24T15:46:56.588Z,48.00
2018-01-24T15:48:47.602Z,44.00
2018-01-24T15:49:47.565Z,40.00
2018-01-24T15:51:43.507Z,32.00
2018-01-24T15:52:43.602Z,32.00
2018-01-24T15:54:36.456Z,28.00
2018-01-24T15:55:36.459Z,28.00
2018-01-24T15:57:29.392Z,24.00
2018-01-24T15:58:29.419Z,24.00
2018-01-24T16:00:22.477Z,20.00
2018-01-24T16:01:22.554Z,20.00
2018-01-24T16:03:15.401Z,20.00
2018-01-24T16:04:15.425Z,16.00
2018-01-24T16:06:08.375Z,16.00
2018-01-24T16:07:08.380Z,12.00
2018-01-24T16:09:01.326Z,8.00
2018-01-24T16:10:01.329Z,8.00
2018-01-24T16:11:54.262Z,8.00
2018-01-24T16:12:54.287Z,8.00
2018-01-24T16:14:47.748Z,4.00
2018-01-24T16:15:47.752Z,4.00
2018-01-24T16:17:40.684Z,4.00
2018-01-24T16:18:40.704Z,4.00
2018-01-24T16:20:33.656Z,4.00
2018-01-24T16:21:33.661Z,4.00
2018-01-24T16:23:26.589Z,4.00
2018-01-24T16:24:26.612Z,0.00
2018-01-24T16:26:19.562Z,4.00
2018-01-24T16:27:19.567Z,0.00
2018-01-24T16:29:12.497Z,4.00
2018-01-24T16:30:12.499Z,0.00
2018-01-24T16:32:05.455Z,0.00
2018-01-24T16:33:05.476Z,0.00
2018-01-24T16:34:58.425Z,0.00
2018-01-24T16:35:58.432Z,0.00
2018-01-24T16:37:51.361Z,0.00
2018-01-24T16:38:51.385Z,0.00
2018-01-24T16:40:44.334Z,0.00
2018-01-24T16:41:44.345Z,0.00
2018-01-24T16:43:37.269Z,0.00
2018-01-24T16:44:37.295Z,0.00
2018-01-24T16:46:30.242Z,0.00
2018-01-24T16:47:30.249Z,0.00
2018-01-24T16:49:24.745Z,0.00
2018-01-24T16:50:24.741Z,0.00
2018-01-24T16:52:18.182Z,0.00
2018-01-24T16:53:18.204Z,0.00
2018-01-24T16:55:11.158Z,0.00
2018-01-24T16:56:11.159Z,0.00
2018-01-24T16:58:04.125Z,0.00
2018-01-24T16:59:04.113Z,0.00
2018-01-24T17:00:57.071Z,0.00
2018-01-24T17:01:57.065Z,0.00
2018-01-24T17:03:49.998Z,0.00
2018-01-24T17:04:50.020Z,0.00
2018-01-24T17:06:42.971Z,0.00
2018-01-24T17:07:43.059Z,0.00
2018-01-24T17:09:36.462Z,0.00
2018-01-24T17:10:36.441Z,0.00
2018-01-24T17:12:29.381Z,0.00
2018-01-24T17:13:29.400Z,0.00
2018-01-24T17:15:25.471Z,0.00
2018-01-24T17:16:25.421Z,0.00
2018-01-24T17:18:18.351Z,0.00
2018-01-24T17:19:18.374Z,0.00
2018-01-24T17:21:11.324Z,0.00
2018-01-24T17:22:11.329Z,0.00
2018-01-24T17:24:04.261Z,0.00
2018-01-24T17:25:04.286Z,0.00
2018-01-24T17:26:57.232Z,0.00
2018-01-24T17:27:57.242Z,0.00
2018-01-24T17:29:50.187Z,0.00
2018-01-24T17:30:50.191Z,0.00
2018-01-24T17:32:44.665Z,0.00
2018-01-24T17:33:44.713Z,0.00
2018-01-24T17:35:37.635Z,0.00
2018-01-24T17:36:37.636Z,0.00
2018-01-24T17:38:30.550Z,0.00
2018-01-24T17:39:30.570Z,0.00
2018-01-24T17:41:23.541Z,0.00
2018-01-24T17:42:23.569Z,0.00
2018-01-24T17:44:16.475Z,0.00
2018-01-24T17:45:16.502Z,0.00
2018-01-24T17:47:09.552Z,0.00
2018-01-24T17:48:09.554Z,0.00
2018-01-24T17:50:03.042Z,0.00
2018-01-24T17:51:03.046Z,0.00
2018-01-24T17:52:56.054Z,0.00
2018-01-24T17:53:56.077Z,0.00
2018-01-24T17:55:49.027Z,0.00
2018-01-24T17:56:49.033Z,0.00
2018-01-24T17:58:41.963Z,0.00
2018-01-24T17:59:41.986Z,0.00
2018-01-24T18:01:38.008Z,0.00
2018-01-24T18:02:38.012Z,0.00
2018-01-24T18:04:30.966Z,0.00
2018-01-24T18:05:31.052Z,0.00
2018-01-24T18:07:23.902Z,0.00
2018-01-24T18:08:23.928Z,0.00
2018-01-24T18:10:16.869Z,0.00
2018-01-24T18:11:16.874Z,0.00
2018-01-24T18:13:09.806Z,0.00
2018-01-24T18:14:09.915Z,0.00
2018-01-24T18:16:02.780Z,0.00
2018-01-24T18:17:02.801Z,0.00
2018-01-24T18:18:56.737Z,0.00
2018-01-24T18:19:56.848Z,0.00
2018-01-24T18:21:51.251Z,0.00
2018-01-24T18:22:51.253Z,0.00
2018-01-24T18:24:44.201Z,0.00
2018-01-24T18:25:44.205Z,0.00